Time;durP1;ratioP1;P1;durP2;ratioP2;P2;SDS_P1;SDS_P2;PMS_P1;PMS_P2;Temp;Humidity;BMP_temperature;BMP_pressure;BME280_temperature;BME280_humidity;BME280_pressure;Samples;Min_cycle;Max_cycle;Signal;HPM_P1;HPM_P2
2022/12/13 00:00:30;;;;;;;3.40;0.63;;;;;;;-2.37;64.23;100284.00;5073822;28;20044;-70
2022/12/13 00:02:58;;;;;;;1.95;0.30;;;;;;;-2.34;64.31;100276.41;5079033;28;20139;-70
2022/12/13 00:05:25;;;;;;;4.93;0.20;;;;;;;-2.36;64.33;100270.38;5076032;28;20044;-70
2022/12/13 00:07:51;;;;;;;2.47;0.10;;;;;;;-2.36;64.85;100265.25;5078770;28;20458;-70
2022/12/13 00:10:18;;;;;;;0.77;0.20;;;;;;;-2.39;64.71;100257.50;5072357;28;20044;-70
2022/12/13 00:12:45;;;;;;;2.03;0.30;;;;;;;-2.39;64.79;100268.63;5082102;28;20109;-70
2022/12/13 00:15:12;;;;;;;0.38;0.13;;;;;;;-2.40;64.86;100261.75;5076394;28;20044;-70
2022/12/13 00:17:39;;;;;;;2.00;1.02;;;;;;;-2.43;65.03;100256.56;5073929;28;20052;-70
2022/12/13 00:20:08;;;;;;;1.67;0.10;;;;;;;-2.47;64.91;100241.13;5080810;28;20048;-70
2022/12/13 00:22:34;;;;;;;3.05;0.28;;;;;;;-2.40;65.42;100260.91;5074863;28;20074;-70
2022/12/13 00:25:01;;;;;;;2.78;0.60;;;;;;;-2.41;65.48;100254.94;5078553;28;20102;-70
2022/12/13 00:27:28;;;;;;;1.85;0.10;;;;;;;-2.42;65.32;100248.09;5079653;28;20048;-70
2022/12/13 00:29:55;;;;;;;3.15;0.20;;;;;;;-2.52;65.30;100234.19;5076744;28;20055;-70
2022/12/13 00:32:21;;;;;;;1.17;0.30;;;;;;;-2.44;65.03;100244.63;5080392;28;20045;-70
2022/12/13 00:34:48;;;;;;;0.45;0.20;;;;;;;-2.46;65.50;100251.38;5073798;28;20125;-70
2022/12/13 00:37:16;;;;;;;5.43;1.10;;;;;;;-2.47;65.52;100243.69;5074126;28;20048;-70
2022/12/13 00:39:43;;;;;;;3.92;0.43;;;;;;;-2.46;65.71;100240.28;5077327;28;20041;-71
2022/12/13 00:42:10;;;;;;;2.88;0.47;;;;;;;-2.49;65.63;100231.69;5079345;28;20114;-70
2022/12/13 00:44:36;;;;;;;0.63;0.30;;;;;;;-2.50;65.62;100226.56;5082295;28;20523;-70
2022/12/13 00:47:03;;;;;;;10.35;0.25;;;;;;;-2.52;65.98;100231.63;5075383;28;20582;-70
2022/12/13 00:49:30;;;;;;;3.70;0.30;;;;;;;-2.53;65.72;100224.78;5079270;28;20068;-70
2022/12/13 00:51:57;;;;;;;0.10;0.10;;;;;;;-2.54;65.81;100217.94;5081258;28;20056;-70
2022/12/13 00:54:25;;;;;;;2.85;0.30;;;;;;;-2.55;65.93;100221.31;5074221;28;20044;-70
2022/12/13 00:56:52;;;;;;;6.30;0.80;;;;;;;-2.56;65.96;100228.94;5078700;28;20051;-70
2022/12/13 00:59:18;;;;;;;1.40;0.28;;;;;;;-2.57;66.03;100228.09;5073756;28;20839;-70
2022/12/13 01:01:45;;;;;;;2.00;0.20;;;;;;;-2.62;66.02;100208.34;5075667;28;20739;-71
2022/12/13 01:04:12;;;;;;;2.88;0.38;;;;;;;-2.59;65.73;100219.53;5071662;28;20044;-70
2022/12/13 01:06:41;;;;;;;1.23;0.10;;;;;;;-2.60;66.09;100227.16;5071995;28;20074;-70
2022/12/13 01:09:12;;;;;;;4.70;0.17;;;;;;;-2.60;66.10;100228.00;5073399;28;20303;-70
2022/12/13 01:11:41;;;;;;;2.03;0.35;;;;;;;-2.60;65.78;100216.91;5074062;28;20097;-70
2022/12/13 01:14:07;;;;;;;0.93;0.20;;;;;;;-2.60;66.16;100228.00;5073506;28;20495;-70
2022/12/13 01:16:34;;;;;;;0.17;0.10;;;;;;;-2.60;66.16;100215.22;5073305;28;20110;-70
2022/12/13 01:19:01;;;;;;;1.42;0.20;;;;;;;-2.60;66.18;100209.25;5076914;28;20052;-70
2022/12/13 01:21:28;;;;;;;1.98;0.30;;;;;;;-2.60;66.39;100214.34;5074736;28;20413;-70
2022/12/13 01:23:56;;;;;;;1.65;0.35;;;;;;;-2.61;66.10;100210.94;5072315;28;20041;-70
2022/12/13 01:26:23;;;;;;;1.60;0.10;;;;;;;-2.63;66.17;100212.59;5073590;28;20048;-70
2022/12/13 01:28:51;;;;;;;2.58;0.20;;;;;;;-2.64;66.44;100195.53;5072115;28;20664;-70
2022/12/13 01:31:19;;;;;;;4.63;0.28;;;;;;;-2.65;66.19;100204.00;5075735;28;20065;-70
2022/12/13 01:33:47;;;;;;;0.22;0.20;;;;;;;-2.65;66.61;100201.44;5075907;28;20056;-70
2022/12/13 01:36:16;;;;;;;1.27;0.17;;;;;;;-2.65;66.54;100206.56;5075878;28;20044;-70
2022/12/13 01:38:43;;;;;;;3.55;0.30;;;;;;;-2.67;66.68;100195.44;5074213;28;20048;-70
2022/12/13 01:41:13;;;;;;;4.22;0.20;;;;;;;-2.67;66.65;100185.22;5077881;28;20053;-71
2022/12/13 01:43:59;;;;;;;2.55;0.20;;;;;;;-2.66;66.66;100186.94;5069997;28;20048;-70
2022/12/13 01:46:26;;;;;;;2.85;1.00;;;;;;;-2.75;66.59;100167.13;5072930;28;20052;-70
2022/12/13 01:48:59;;;;;;;3.95;0.30;;;;;;;-2.71;66.83;100180.84;5074661;28;20048;-72
2022/12/13 01:51:32;;;;;;;1.73;0.20;;;;;;;-2.69;66.67;100184.31;5071800;28;20040;-70
2022/12/13 01:54:03;;;;;;;1.05;0.20;;;;;;;-2.70;66.70;100174.94;5073672;28;20581;-70
2022/12/13 01:56:34;;;;;;;3.72;0.63;;;;;;;-2.72;67.07;100179.97;5066507;28;20075;-70
2022/12/13 01:59:03;;;;;;;6.10;0.40;;;;;;;-2.74;66.92;100173.97;5069059;28;20523;-70
2022/12/13 02:01:30;;;;;;;10.35;0.45;;;;;;;-2.76;66.93;100170.53;5075210;28;20549;-70
2022/12/13 02:03:57;;;;;;;1.17;0.17;;;;;;;-2.77;67.19;100166.22;5074824;28;20053;-71
2022/12/13 02:06:30;;;;;;;2.83;0.22;;;;;;;-2.77;67.25;100157.69;5081519;28;20047;-70
2022/12/13 02:08:57;;;;;;;5.97;0.20;;;;;;;-2.77;67.19;100162.78;5071656;28;20056;-70
2022/12/13 02:11:26;;;;;;;0.75;0.25;;;;;;;-2.78;66.73;100143.19;5076294;28;20036;-70
2022/12/13 02:13:53;;;;;;;2.58;0.20;;;;;;;-2.78;67.01;100161.94;5076015;28;20052;-70
2022/12/13 02:16:34;;;;;;;2.17;0.03;;;;;;;-2.78;67.06;100141.50;5070139;28;20044;-70
2022/12/13 02:19:45;;;;;;;2.45;0.30;;;;;;;-2.76;66.95;100141.50;5072288;28;20051;-70
2022/12/13 02:22:32;;;;;;;1.55;0.25;;;;;;;-2.80;66.98;100127.78;5029663;28;20616;-70
2022/12/13 02:25:19;;;;;;;1.55;0.20;;;;;;;-2.79;67.02;100126.09;5069317;28;20051;-71
2022/12/13 02:28:12;;;;;;;0.88;0.20;;;;;;;-2.78;67.08;100125.28;5070755;28;20511;-70
2022/12/13 02:30:44;;;;;;;2.30;0.30;;;;;;;-2.94;67.40;100103.59;5069709;28;20122;-70
2022/12/13 02:33:24;;;;;;;0.32;0.10;;;;;;;-2.83;67.11;100134.53;5072376;28;20056;-70
2022/12/13 02:36:00;;;;;;;1.10;0.10;;;;;;;-2.80;67.02;100124.38;5074772;28;20098;-70
2022/12/13 02:38:33;;;;;;;5.47;1.10;;;;;;;-2.81;67.52;100115.00;5077350;28;20109;-69
2022/12/13 02:41:11;;;;;;;0.52;0.20;;;;;;;-2.90;66.94;100105.41;5076502;28;20051;-70
2022/12/13 02:43:43;;;;;;;3.70;0.30;;;;;;;-2.91;67.19;100092.56;5074221;28;20074;-70
2022/12/13 02:46:14;;;;;;;3.30;0.30;;;;;;;-2.92;66.97;100091.72;5071281;28;20117;-70
2022/12/13 02:48:42;;;;;;;1.45;0.25;;;;;;;-2.83;67.14;100102.16;5078307;28;20531;-70
2022/12/13 02:51:11;;;;;;;6.10;1.33;;;;;;;-2.83;67.27;100109.84;5076074;28;20102;-70
2022/12/13 02:53:40;;;;;;;2.80;0.30;;;;;;;-2.85;67.68;100101.25;5075110;28;20094;-70
2022/12/13 02:56:07;;;;;;;4.70;0.20;;;;;;;-2.83;67.46;100093.63;5076265;28;20598;-70
2022/12/13 02:58:37;;;;;;;3.90;0.20;;;;;;;-2.83;67.47;100091.09;5075928;28;20036;-70
2022/12/13 03:01:23;;;;;;;3.97;0.20;;;;;;;-2.87;67.25;100079.06;5073596;28;20416;-70
2022/12/13 03:03:56;;;;;;;;;;;;;;;-2.83;67.28;100075.75;5079911;28;20067;-70
2022/12/13 03:06:31;;;;;;;0.30;0.30;;;;;;;-2.88;67.40;100079.88;5073441;28;19950;-70
2022/12/13 03:09:14;;;;;;;1.35;0.30;;;;;;;-2.87;67.81;100073.97;5077611;28;20130;-70
2022/12/13 03:14:54;;;;;;;0.75;0.17;;;;;;;-2.86;67.53;100071.41;5077193;28;20129;-70
2022/12/13 03:17:25;;;;;;;1.67;0.10;;;;;;;-2.85;67.40;100069.72;5071764;28;20049;-70
2022/12/13 03:19:53;;;;;;;1.65;0.10;;;;;;;-2.87;67.50;100072.25;5077428;28;20078;-70
2022/12/13 03:22:19;;;;;;;0.40;0.10;;;;;;;-2.86;67.45;100060.34;5076799;28;20493;-70
2022/12/13 03:24:46;;;;;;;1.02;0.28;;;;;;;-2.86;67.79;100070.56;5078451;28;20052;-71
2022/12/13 03:27:13;;;;;;;1.98;0.10;;;;;;;-2.88;67.59;100072.22;5077540;28;20040;-70
2022/12/13 03:29:40;;;;;;;2.17;0.30;;;;;;;-2.89;67.55;100058.56;5074478;28;20099;-70
2022/12/13 03:32:07;;;;;;;0.32;0.20;;;;;;;-2.89;67.19;100073.03;5079837;28;20110;-70
2022/12/13 03:34:35;;;;;;;0.80;0.30;;;;;;;-2.92;67.81;100078.94;5076497;28;20044;-70
2022/12/13 03:37:02;;;;;;;0.65;0.20;;;;;;;-2.94;67.22;100078.91;5075803;28;20051;-70
2022/12/13 03:39:29;;;;;;;0.40;0.35;;;;;;;-2.96;67.51;100075.47;5078535;28;20040;-70
2022/12/13 03:41:55;;;;;;;0.82;0.30;;;;;;;-3.00;67.23;100072.78;5079943;28;20040;-81
2022/12/13 03:44:22;;;;;;;1.25;0.30;;;;;;;-2.97;67.28;100073.72;5079562;28;20051;-81
2022/12/13 03:46:49;;;;;;;3.30;0.17;;;;;;;-3.00;67.06;100073.63;5078652;28;20085;-82
2022/12/13 03:49:16;;;;;;;2.85;0.38;;;;;;;-3.03;67.12;100063.34;5088854;28;20052;-81
2022/12/13 03:51:44;;;;;;;0.88;0.20;;;;;;;-3.05;67.01;100077.75;5085709;28;20045;-81
2022/12/13 03:54:11;;;;;;;0.88;0.30;;;;;;;-3.12;66.95;100059.72;5082173;28;20044;-81
2022/12/13 03:56:37;;;;;;;0.17;0.10;;;;;;;-3.10;66.94;100068.25;5088326;28;20094;-81
2022/12/13 03:59:04;;;;;;;0.30;0.30;;;;;;;-3.13;66.59;100056.28;5086480;28;20541;-81
2022/12/13 04:01:31;;;;;;;0.90;0.17;;;;;;;-3.18;66.59;100047.66;5084807;28;20465;-81
2022/12/13 04:03:58;;;;;;;1.75;0.20;;;;;;;-3.18;66.65;100047.66;5075593;28;20044;-81
2022/12/13 04:06:24;;;;;;;0.88;0.30;;;;;;;-3.21;66.24;100047.56;5082854;28;20040;-81
2022/12/13 04:08:52;;;;;;;0.32;0.20;;;;;;;-3.25;66.20;100051.72;5081397;28;20500;-81
2022/12/13 04:14:04;;;;;;;1.85;0.20;;;;;;;-3.32;66.27;100056.66;5082571;28;20063;-81
2022/12/13 04:16:31;;;;;;;0.50;0.30;;;;;;;-3.35;66.70;100049.75;5074806;28;20466;-81
2022/12/13 04:18:57;;;;;;;3.70;0.20;;;;;;;-3.36;66.49;100047.16;5085756;28;20055;-81
2022/12/13 04:21:24;;;;;;;0.20;0.10;;;;;;;-3.40;66.34;100047.06;5082220;28;20102;-81
2022/12/13 04:23:52;;;;;;;1.02;0.20;;;;;;;-3.42;66.42;100038.50;5084230;28;20047;-81
2022/12/13 04:26:19;;;;;;;2.88;0.30;;;;;;;-3.44;66.50;100029.97;5079369;28;20051;-81
2022/12/13 04:28:46;;;;;;;0.20;0.20;;;;;;;-3.48;66.21;100033.25;5084516;28;20047;-81
2022/12/13 04:31:13;;;;;;;2.70;0.20;;;;;;;-3.52;66.18;100036.56;5075699;28;20052;-81
2022/12/13 04:33:39;;;;;;;1.50;0.25;;;;;;;-3.56;66.37;100033.88;5084806;28;20101;-82
2022/12/13 04:36:07;;;;;;;0.93;0.20;;;;;;;-3.61;66.35;100023.56;5091445;28;20048;-81
2022/12/13 04:38:34;;;;;;;1.05;0.20;;;;;;;-3.65;66.17;100024.28;5088078;28;20489;-81
2022/12/13 04:41:15;;;;;;;0.20;0.13;;;;;;;-3.68;66.13;100025.06;5090684;28;20389;-81
2022/12/13 04:43:42;;;;;;;0.68;0.30;;;;;;;-3.72;66.19;100025.81;5086701;28;20044;-81
2022/12/13 04:46:09;;;;;;;1.00;0.20;;;;;;;-3.72;66.38;100041.13;5102631;28;20758;-82
2022/12/13 04:48:35;;;;;;;1.85;0.20;;;;;;;-3.77;66.55;100026.50;5092772;28;20036;-81
2022/12/13 04:51:02;;;;;;;0.60;0.20;;;;;;;-3.78;66.21;100029.91;5091996;27;20059;-81
2022/12/13 04:53:30;;;;;;;1.50;0.30;;;;;;;-3.86;66.70;100010.13;5087444;28;20842;-81
2022/12/13 04:55:57;;;;;;;3.13;0.28;;;;;;;-3.83;66.42;100023.81;5081598;28;20055;-82
2022/12/13 04:58:25;;;;;;;0.43;0.30;;;;;;;-3.86;66.15;100014.38;5090377;28;20109;-82
2022/12/13 05:00:52;;;;;;;0.13;0.03;;;;;;;-3.89;66.44;100015.16;5085228;28;20078;-81
2022/12/13 05:03:18;;;;;;;6.90;0.17;;;;;;;-3.91;66.44;99998.06;5088891;28;20048;-81
2022/12/13 05:05:45;;;;;;;0.90;0.30;;;;;;;-3.99;66.29;100010.59;5088080;28;20040;-81
2022/12/13 05:08:12;;;;;;;1.15;0.32;;;;;;;-4.05;66.50;100000.22;5088082;28;20090;-81
2022/12/13 05:10:39;;;;;;;0.60;0.20;;;;;;;-3.98;66.18;100003.84;5088407;28;20394;-81
2022/12/13 05:13:06;;;;;;;2.38;0.20;;;;;;;-4.02;66.03;100013.06;5082063;28;20044;-81
2022/12/13 05:15:35;;;;;;;0.57;0.20;;;;;;;-4.04;66.35;100014.75;5090604;28;20465;-81
2022/12/13 05:18:02;;;;;;;0.95;0.30;;;;;;;-4.10;66.29;100000.13;5084001;28;20063;-81
2022/12/13 05:20:29;;;;;;;0.90;0.35;;;;;;;-4.11;66.27;100005.16;5094085;28;20450;-81
2022/12/13 05:22:57;;;;;;;0.57;0.17;;;;;;;-4.13;65.91;100004.25;5090214;28;20454;-82
2022/12/13 05:25:24;;;;;;;0.63;0.17;;;;;;;-4.16;66.18;100009.28;5093531;28;20132;-81
2022/12/13 05:27:51;;;;;;;0.35;0.10;;;;;;;-4.18;66.06;100014.34;5081492;28;20515;-81
2022/12/13 05:30:18;;;;;;;0.65;0.52;;;;;;;-4.20;66.41;100015.97;5084076;28;20051;-80
2022/12/13 05:32:46;;;;;;;0.50;0.20;;;;;;;-4.23;66.27;100007.38;5083894;28;20492;-81
2022/12/13 05:35:14;;;;;;;1.08;0.20;;;;;;;-4.25;66.12;100011.56;5021380;28;20071;-81
2022/12/13 05:37:41;;;;;;;0.20;0.17;;;;;;;-4.27;65.82;100021.72;5081177;28;20052;-82
2022/12/13 05:40:09;;;;;;;0.85;0.20;;;;;;;-4.30;66.08;100019.97;5083450;28;20450;-81
2022/12/13 05:42:37;;;;;;;2.17;0.40;;;;;;;-4.33;65.99;100016.44;5082857;28;20079;-81
2022/12/13 05:45:06;;;;;;;1.10;0.30;;;;;;;-4.35;65.79;100011.31;5080695;28;20115;-81
2022/12/13 05:47:32;;;;;;;1.45;0.40;;;;;;;-4.37;65.53;100018.03;5084928;28;20060;-81
2022/12/13 05:50:02;;;;;;;1.83;0.20;;;;;;;-4.37;65.90;100019.72;5087633;28;20056;-85
2022/12/13 05:52:28;;;;;;;0.63;0.38;;;;;;;-4.39;65.85;100004.38;5081871;28;20063;-86
2022/12/13 05:54:56;;;;;;;0.10;0.10;;;;;;;-4.40;66.06;100000.09;5084781;28;20075;-84
2022/12/13 05:57:23;;;;;;;2.05;0.17;;;;;;;-4.41;65.63;100005.13;5085800;28;20429;-84
2022/12/13 05:59:50;;;;;;;1.08;0.20;;;;;;;-4.45;66.30;100003.34;5086655;28;20039;-85
2022/12/13 06:02:17;;;;;;;2.83;0.20;;;;;;;-4.48;66.38;100000.69;5087787;28;20090;-84
2022/12/13 06:04:44;;;;;;;0.65;0.30;;;;;;;-4.73;65.97;99958.31;5089493;28;20139;-85
2022/12/13 06:07:13;;;;;;;1.00;0.30;;;;;;;-4.56;66.40;100014.06;5077163;28;20052;-86
2022/12/13 06:09:41;;;;;;;0.63;0.20;;;;;;;-4.70;66.48;99979.66;5082030;28;20047;-86
2022/12/13 06:12:08;;;;;;;1.88;0.30;;;;;;;-4.52;66.35;100007.41;5078693;28;20044;-85
2022/12/13 06:14:35;;;;;;;0.68;0.68;;;;;;;-4.54;65.76;100009.03;5079824;28;21049;-85
2022/12/13 06:17:02;;;;;;;2.42;0.50;;;;;;;-4.65;66.23;99998.50;5076851;28;20492;-85
2022/12/13 06:19:29;;;;;;;1.17;0.20;;;;;;;-4.63;66.20;99985.81;5079414;28;20113;-83
2022/12/13 06:21:56;;;;;;;1.67;0.25;;;;;;;-4.57;66.71;100008.94;5078154;28;20044;-78
2022/12/13 06:24:26;;;;;;;1.85;0.55;;;;;;;-4.61;66.65;100000.34;5083448;28;20055;-78
2022/12/13 06:26:53;;;;;;;0.10;0.10;;;;;;;-4.62;66.49;100002.84;5081777;28;20140;-78
2022/12/13 06:29:22;;;;;;;2.85;0.43;;;;;;;-4.64;66.49;100019.75;5075049;28;20442;-78
2022/12/13 06:31:55;;;;;;;0.40;0.20;;;;;;;-4.65;66.51;100005.28;5077156;28;20036;-78
2022/12/13 06:34:22;;;;;;;0.70;0.38;;;;;;;-4.67;66.82;100010.31;5078967;28;20438;-78
2022/12/13 06:36:49;;;;;;;0.30;0.20;;;;;;;-4.81;67.02;99987.00;5079048;28;20075;-77
2022/12/13 06:39:16;;;;;;;0.40;0.38;;;;;;;-4.71;66.45;100012.75;5079892;28;20041;-79
2022/12/13 06:41:44;;;;;;;1.55;0.25;;;;;;;-4.73;66.35;100014.38;5078809;28;20044;-78
2022/12/13 06:44:11;;;;;;;2.13;0.40;;;;;;;-4.84;66.74;99973.28;5075811;28;20048;-77
2022/12/13 06:46:38;;;;;;;0.50;0.30;;;;;;;-4.77;66.04;100003.25;5080470;28;20408;-81
2022/12/13 06:49:05;;;;;;;0.75;0.32;;;;;;;-4.81;66.25;99992.09;5081024;28;20048;-78
2022/12/13 06:51:33;;;;;;;0.38;0.30;;;;;;;-4.83;66.64;99992.88;5089512;28;20055;-77
2022/12/13 06:53:59;;;;;;;0.65;0.30;;;;;;;-4.83;66.46;99988.63;5078676;28;20419;-77
2022/12/13 06:56:26;;;;;;;0.50;0.28;;;;;;;-4.85;66.43;100000.44;5085527;28;20051;-78
2022/12/13 06:58:54;;;;;;;0.55;0.20;;;;;;;-4.85;66.30;99984.31;5082440;28;20105;-77
2022/12/13 07:01:21;;;;;;;0.60;0.30;;;;;;;-4.87;65.83;100002.06;5081489;28;20040;-76
2022/12/13 07:03:48;;;;;;;1.38;0.40;;;;;;;-4.90;66.03;99978.19;5079510;28;20515;-83
2022/12/13 07:06:17;;;;;;;1.50;0.30;;;;;;;-4.95;65.61;99998.44;5080583;28;20054;-83
2022/12/13 07:08:48;;;;;;;2.22;0.50;;;;;;;-5.02;65.68;100006.69;5081044;28;20112;-79
2022/12/13 07:11:16;;;;;;;2.40;0.28;;;;;;;-4.98;65.56;99977.94;5087218;28;20044;-85
2022/12/13 07:13:44;;;;;;;0.35;0.10;;;;;;;-5.00;66.35;99997.44;5077479;28;20086;-84
2022/12/13 07:16:12;;;;;;;1.45;0.40;;;;;;;-5.00;65.58;99992.34;5090109;28;20051;-84
2022/12/13 07:18:40;;;;;;;1.77;0.55;;;;;;;-5.02;66.09;99991.41;5077462;28;20459;-84
2022/12/13 07:21:08;;;;;;;0.45;0.20;;;;;;;-5.02;65.30;100016.88;5083854;28;20048;-84
2022/12/13 07:23:36;;;;;;;2.45;0.30;;;;;;;-5.05;65.54;99988.78;5088098;28;20044;-83
2022/12/13 07:26:03;;;;;;;0.22;0.10;;;;;;;-5.08;65.52;100003.97;5088650;28;20048;-84
2022/12/13 07:28:33;;;;;;;2.10;0.80;;;;;;;-5.06;65.11;100007.44;5084874;28;20561;-84
2022/12/13 07:31:00;;;;;;;1.60;0.20;;;;;;;-5.08;65.46;100006.50;5091995;28;20048;-85
2022/12/13 07:33:29;;;;;;;1.00;0.30;;;;;;;-5.12;65.70;99997.03;5087718;28;20044;-86
2022/12/13 07:36:00;;;;;;;1.27;0.40;;;;;;;-5.11;65.43;100016.59;5077693;28;20045;-83
2022/12/13 07:38:27;;;;;;;2.22;0.20;;;;;;;-5.13;65.33;100006.34;5078882;28;20060;-85
2022/12/13 07:40:56;;;;;;;0.38;0.20;;;;;;;-5.14;65.10;100013.97;5085239;28;20751;-88
2022/12/13 07:43:23;;;;;;;1.05;0.30;;;;;;;-5.22;64.65;99999.28;5082389;28;20052;-85
2022/12/13 07:45:50;;;;;;;0.75;0.17;;;;;;;-5.17;65.32;100018.94;5076374;28;20139;-82
2022/12/13 07:48:17;;;;;;;0.57;0.30;;;;;;;-5.23;64.80;100007.75;5082348;28;20055;-81
2022/12/13 07:50:45;;;;;;;0.47;0.30;;;;;;;-5.18;65.43;100004.47;5083895;28;20098;-85
2022/12/13 07:53:12;;;;;;;0.47;0.20;;;;;;;-5.39;65.27;99980.06;5084947;28;20049;-84
2022/12/13 07:55:39;;;;;;;0.73;0.20;;;;;;;-5.28;64.67;99988.91;5086831;28;20089;-87
2022/12/13 07:58:07;;;;;;;0.20;0.10;;;;;;;-5.21;65.58;100003.56;5082474;28;20070;-87
2022/12/13 08:00:34;;;;;;;0.80;0.25;;;;;;;-5.25;64.77;100004.28;5078807;28;20056;-86
2022/12/13 08:03:01;;;;;;;0.40;0.28;;;;;;;-5.32;64.78;99994.72;5087878;28;20441;-87
2022/12/13 08:05:28;;;;;;;0.70;0.20;;;;;;;-5.27;64.90;100011.00;5082391;28;20072;-78
2022/12/13 08:07:56;;;;;;;1.75;0.30;;;;;;;-5.26;64.46;100016.97;5080717;28;20097;-77
2022/12/13 08:10:23;;;;;;;2.92;0.30;;;;;;;-5.36;64.45;100000.50;5081083;28;20051;-77
2022/12/13 08:12:50;;;;;;;0.40;0.35;;;;;;;-5.28;64.34;100013.50;5084140;28;20047;-86
2022/12/13 08:15:17;;;;;;;1.08;0.40;;;;;;;-5.41;64.03;99994.41;5101862;28;20043;-83
2022/12/13 08:17:44;;;;;;;0.45;0.45;;;;;;;-5.29;64.53;100027.06;5102035;27;20044;-78
2022/12/13 08:20:11;;;;;;;1.15;0.25;;;;;;;-5.36;64.84;100008.16;5109583;28;20447;-82
2022/12/13 08:22:38;;;;;;;0.45;0.35;;;;;;;-5.37;64.28;100005.56;5116068;27;20047;-80
2022/12/13 08:25:07;;;;;;;3.60;0.60;;;;;;;-5.31;64.74;100014.25;5113927;28;20071;-80
2022/12/13 08:27:34;;;;;;;1.23;0.22;;;;;;;-5.32;64.66;100024.38;5111281;27;20109;-81
2022/12/13 08:30:01;;;;;;;1.15;0.85;;;;;;;-5.34;64.76;100008.22;5108838;27;20055;-79
2022/12/13 08:32:28;;;;;;;0.60;0.15;;;;;;;-5.35;64.06;100025.16;5108339;27;20510;-78
2022/12/13 08:34:55;;;;;;;2.97;1.15;;;;;;;-5.34;64.74;100009.06;5105830;28;20050;-80
2022/12/13 08:37:21;;;;;;;0.55;0.20;;;;;;;-5.41;64.02;100012.22;5104630;27;20100;-83
2022/12/13 08:39:48;;;;;;;1.25;0.20;;;;;;;-5.35;64.32;100035.34;5107941;28;20051;-80
2022/12/13 08:42:18;;;;;;;1.27;0.22;;;;;;;-5.34;64.40;100016.72;5104027;28;20662;-80
2022/12/13 08:44:46;;;;;;;0.57;0.20;;;;;;;-5.34;64.43;100034.53;5102665;28;20055;-80
2022/12/13 08:47:13;;;;;;;0.57;0.20;;;;;;;-5.35;64.75;100027.72;5110139;27;20054;-81
2022/12/13 08:49:40;;;;;;;1.83;0.20;;;;;;;-5.34;64.31;100044.72;5103838;28;20105;-76
2022/12/13 08:52:07;;;;;;;0.28;0.20;;;;;;;-5.35;63.81;100034.47;5105041;28;20052;-78
2022/12/13 08:54:34;;;;;;;0.55;0.30;;;;;;;-5.35;64.08;100032.81;5101669;28;20044;-76
2022/12/13 08:57:00;;;;;;;2.33;0.40;;;;;;;-5.33;64.22;100041.34;5097471;28;20035;-75
2022/12/13 08:59:29;;;;;;;0.20;0.10;;;;;;;-5.33;64.44;100015.88;5102049;28;20040;-76
2022/12/13 09:01:55;;;;;;;2.05;0.60;;;;;;;-5.33;64.73;100041.34;5101737;28;20051;-89
2022/12/13 09:04:22;;;;;;;1.38;0.20;;;;;;;-5.50;63.75;100006.81;5107330;28;20047;-86
2022/12/13 09:06:49;;;;;;;1.42;0.30;;;;;;;-5.32;64.04;100049.84;5101472;28;20055;-87
2022/12/13 09:09:16;;;;;;;0.32;0.20;;;;;;;-5.39;63.95;100033.50;5105584;28;20044;-75
2022/12/13 09:11:43;;;;;;;2.00;0.25;;;;;;;-5.31;63.97;100038.84;5103869;28;20104;-76
2022/12/13 09:14:09;;;;;;;1.63;0.20;;;;;;;-5.47;64.28;100006.94;5099511;28;20047;-86
2022/12/13 09:16:37;;;;;;;1.23;0.25;;;;;;;-5.33;63.64;100033.69;5103769;28;20047;-82
2022/12/13 09:19:05;;;;;;;0.35;0.25;;;;;;;-5.29;63.76;100047.41;5107761;28;20766;-76
2022/12/13 09:21:32;;;;;;;0.10;0.10;;;;;;;-5.30;64.07;100038.88;5106580;28;20043;-77
2022/12/13 09:24:00;;;;;;;0.38;0.28;;;;;;;-5.29;64.59;100048.28;5103918;28;20518;-77
2022/12/13 09:26:26;;;;;;;0.60;0.30;;;;;;;-5.30;63.84;100041.44;5104595;28;20043;-76
2022/12/13 09:28:53;;;;;;;1.55;0.30;;;;;;;-5.28;64.50;100037.28;5099481;28;20089;-78
2022/12/13 09:31:20;;;;;;;14.68;0.30;;;;;;;-5.42;64.07;100020.69;5106582;27;20051;-80
2022/12/13 09:33:49;;;;;;;0.93;0.30;;;;;;;-5.26;64.30;100039.88;5108223;28;20052;-79
2022/12/13 09:36:17;;;;;;;0.80;0.43;;;;;;;-5.24;64.12;100056.06;5099724;28;20072;-79
2022/12/13 09:38:44;;;;;;;0.75;0.20;;;;;;;-5.25;64.44;100055.19;5095295;28;20047;-75
2022/12/13 09:41:20;;;;;;;0.50;0.30;;;;;;;-5.26;64.51;100038.19;5096545;27;20048;-75
2022/12/13 09:43:53;;;;;;;1.25;0.30;;;;;;;-5.26;64.07;100053.47;5098266;28;20048;-76
2022/12/13 09:46:27;;;;;;;0.30;0.17;;;;;;;-5.25;63.88;100039.91;5102035;28;20059;-76
2022/12/13 09:48:57;;;;;;;0.40;0.20;;;;;;;-5.32;63.60;100043.09;5102707;28;20091;-76
2022/12/13 09:51:25;;;;;;;0.77;0.20;;;;;;;-5.25;63.32;100054.34;5107702;27;20508;-78
2022/12/13 09:53:54;;;;;;;0.20;0.20;;;;;;;-5.29;64.08;100052.50;5104422;28;20056;-81
2022/12/13 09:56:23;;;;;;;0.98;0.10;;;;;;;-5.24;63.97;100059.50;5102810;28;20426;-76
2022/12/13 09:58:51;;;;;;;0.15;0.15;;;;;;;-5.25;63.80;100060.28;5099083;28;20040;-78
2022/12/13 10:01:19;;;;;;;0.65;0.20;;;;;;;-5.27;63.33;100055.94;5105717;28;20063;-80
2022/12/13 10:03:49;;;;;;;0.50;0.30;;;;;;;-5.27;63.18;100055.94;5104859;27;20071;-76
2022/12/13 10:06:20;;;;;;;0.65;0.45;;;;;;;-5.27;63.57;100059.34;5103065;28;20396;-77
2022/12/13 10:08:49;;;;;;;0.60;0.20;;;;;;;-5.30;63.37;100055.84;5101243;28;20040;-83
2022/12/13 10:11:17;;;;;;;0.10;0.10;;;;;;;-5.32;63.52;100062.56;5088054;28;20747;-77
2022/12/13 10:13:49;;;;;;;1.35;0.30;;;;;;;-5.32;63.10;100068.53;5105182;28;20480;-77
2022/12/13 10:16:20;;;;;;;2.95;0.25;;;;;;;-5.31;63.02;100060.09;5099299;28;20484;-76
2022/12/13 10:18:47;;;;;;;0.50;0.30;;;;;;;-5.31;63.63;100061.78;5101517;28;20162;-76
2022/12/13 10:21:22;;;;;;;0.35;0.20;;;;;;;-5.34;62.93;100054.03;5096698;28;20120;-75
2022/12/13 10:23:48;;;;;;;0.90;0.30;;;;;;;-5.32;63.61;100063.47;5102022;28;20054;-78
2022/12/13 10:26:15;;;;;;;0.88;0.20;;;;;;;-5.33;63.45;100071.88;5098672;28;20288;-75
2022/12/13 10:28:43;;;;;;;0.65;0.28;;;;;;;-5.42;62.93;100056.31;5087370;28;20044;-75
2022/12/13 10:31:17;;;;;;;0.60;0.10;;;;;;;-5.34;63.13;100066.75;5102087;28;20052;-75
2022/12/13 10:33:54;;;;;;;0.52;0.52;;;;;;;-5.34;63.44;100062.53;5105229;28;20134;-81
2022/12/13 10:36:33;;;;;;;1.23;0.20;;;;;;;-5.36;63.15;100061.59;5101030;28;20079;-77
2022/12/13 10:39:01;;;;;;;1.00;0.30;;;;;;;-5.37;62.91;100069.19;5101865;28;20043;-73
2022/12/13 10:41:36;;;;;;;0.32;0.20;;;;;;;-5.39;62.82;100071.69;5101750;28;20047;-79
2022/12/13 10:44:18;;;;;;;1.42;0.30;;;;;;;-5.40;62.62;100069.97;5105548;28;20055;-76
2022/12/13 10:46:50;;;;;;;0.20;0.20;;;;;;;-5.40;63.09;100069.97;5102507;28;20458;-76
2022/12/13 10:49:21;;;;;;;0.38;0.20;;;;;;;-5.43;62.67;100077.50;5106260;27;20444;-78
2022/12/13 10:51:50;;;;;;;1.33;0.22;;;;;;;-5.43;63.00;100082.59;5108574;28;20048;-83
2022/12/13 10:54:25;;;;;;;1.20;0.20;;;;;;;-5.40;63.34;100092.00;5105516;28;20483;-75
2022/12/13 10:56:58;;;;;;;0.57;0.10;;;;;;;-5.42;62.51;100090.25;5105322;28;20059;-79
2022/12/13 10:59:30;;;;;;;0.45;0.20;;;;;;;-5.46;62.41;100079.94;5092138;28;20059;-79
2022/12/13 11:01:57;;;;;;;0.47;0.20;;;;;;;-5.44;63.29;100083.38;5103444;28;20048;-78
2022/12/13 11:04:28;;;;;;;1.73;0.22;;;;;;;-5.44;63.28;100079.16;5105251;28;20102;-77
2022/12/13 11:06:58;;;;;;;0.95;0.60;;;;;;;-5.43;63.10;100086.00;5105837;28;20044;-76
2022/12/13 11:09:28;;;;;;;0.98;0.30;;;;;;;-5.45;63.16;100091.84;5097378;28;20055;-75
2022/12/13 11:11:57;;;;;;;0.63;0.20;;;;;;;-5.44;63.13;100088.47;5099792;28;20483;-75
2022/12/13 11:14:28;;;;;;;0.98;0.30;;;;;;;-5.44;62.88;100085.91;5098519;27;20048;-74
2022/12/13 11:16:57;;;;;;;1.60;0.40;;;;;;;-5.45;63.29;100090.16;5096151;28;20056;-78
2022/12/13 11:19:30;;;;;;;0.43;0.25;;;;;;;-5.48;62.73;100086.63;5103291;28;20070;-78
2022/12/13 11:22:00;;;;;;;1.02;0.30;;;;;;;-5.45;62.32;100091.84;5109683;28;20088;-78
2022/12/13 11:24:31;;;;;;;3.03;0.30;;;;;;;-5.50;62.86;100078.06;5104026;27;20462;-78
2022/12/13 11:27:02;;;;;;;1.02;0.40;;;;;;;-5.47;62.75;100085.81;5103018;28;20487;-78
2022/12/13 11:29:49;;;;;;;1.10;0.35;;;;;;;-5.47;62.60;100099.41;5104574;28;20047;-78
2022/12/13 11:32:26;;;;;;;0.95;0.20;;;;;;;-5.48;63.03;100097.69;5095297;28;20537;-78
2022/12/13 11:35:04;;;;;;;0.95;0.30;;;;;;;-5.49;62.50;100088.31;5103945;28;20872;-78
2022/12/13 11:37:39;;;;;;;0.70;0.30;;;;;;;-5.60;62.57;100068.41;5101155;28;20097;-78
2022/12/13 11:40:14;;;;;;;0.15;0.10;;;;;;;-5.50;62.69;100090.81;5097980;28;20048;-78